Littleton, Iowa
Current Conditions -  °F | °C
As of 5:35 PM on Saturday 25 Oct 2014 (Local Time) from KIIB Reporting Station
Clear Clear  
Wind Chill: 64°   Ceiling: Unl
Heat Index: 64°   Visibility: 10mi
Dew Point: 34°   Wind: 5mph
Humidity: 32%   Direction: 320°NW
Pressure: 30.04"   Gusts: NA
Location:  42.4576°N, 92.0575°W
Report Text: KIIB 252235Z AUTO 32004KT 10SM CLR 18/01 A3004 RMK AO2
Loading
Personal Weather Stations






























Interactive Weather Map
Tropical Storm Tracking
New forecast layout! Learn more

10-Day Weather Forecast

Advertisements
Track Severe Weather on mobile